sensor_id;sensor_type;location;lat;lon;timestamp;temperature;humidity
71117;SHT31;58775;46.992;9.518;2023-08-12T01:53:09;21.29;74.85
71117;SHT31;58775;46.992;9.518;2023-08-12T01:55:20;21.67;73.95
71117;SHT31;58775;46.992;9.518;2023-08-12T01:57:36;21.81;73.71
71117;SHT31;58775;46.992;9.518;2023-08-12T02:02:59;22.05;72.98
71117;SHT31;58775;46.992;9.518;2023-08-12T02:09:23;21.57;78.02
71117;SHT31;58775;46.992;9.518;2023-08-12T02:15:35;21.39;75.59
71117;SHT31;58775;46.992;9.518;2023-08-12T02:18:30;21.53;74.97
71117;SHT31;58775;46.992;9.518;2023-08-12T02:31:57;21.46;74.21
71117;SHT31;58775;46.992;9.518;2023-08-12T02:34:14;21.71;73.08
71117;SHT31;58775;46.992;9.518;2023-08-12T02:36:30;21.71;75.17
71117;SHT31;58775;46.992;9.518;2023-08-12T02:43:17;21.63;72.85
71117;SHT31;58775;46.992;9.518;2023-08-12T05:47:18;22.53;78.17
71117;SHT31;58775;46.992;9.518;2023-08-12T05:49:19;23.00;74.56
71117;SHT31;58775;46.992;9.518;2023-08-12T05:51:20;23.23;71.88
71117;SHT31;58775;46.992;9.518;2023-08-12T05:53:27;23.33;71.07
71117;SHT31;58775;46.992;9.518;2023-08-12T05:55:28;23.33;72.53
71117;SHT31;58775;46.992;9.518;2023-08-12T05:57:29;23.07;74.22
71117;SHT31;58775;46.992;9.518;2023-08-12T05:59:30;23.03;69.93
71117;SHT31;58775;46.992;9.518;2023-08-12T06:01:31;23.03;69.81
71117;SHT31;58775;46.992;9.518;2023-08-12T06:03:32;23.20;70.33
71117;SHT31;58775;46.992;9.518;2023-08-12T06:05:33;22.92;74.33
71117;SHT31;58775;46.992;9.518;2023-08-12T06:07:35;22.79;76.48
71117;SHT31;58775;46.992;9.518;2023-08-12T06:09:35;22.85;77.57
71117;SHT31;58775;46.992;9.518;2023-08-12T06:11:36;23.13;76.77
71117;SHT31;58775;46.992;9.518;2023-08-12T06:13:37;23.11;76.31
71117;SHT31;58775;46.992;9.518;2023-08-12T06:15:38;23.23;74.82
71117;SHT31;58775;46.992;9.518;2023-08-12T06:17:39;22.90;75.92
71117;SHT31;58775;46.992;9.518;2023-08-12T06:19:40;22.68;76.10
71117;SHT31;58775;46.992;9.518;2023-08-12T06:21:40;22.38;77.91
71117;SHT31;58775;46.992;9.518;2023-08-12T06:23:41;22.21;77.61
71117;SHT31;58775;46.992;9.518;2023-08-12T06:25:42;22.47;77.81
71117;SHT31;58775;46.992;9.518;2023-08-12T06:27:44;22.55;78.94
71117;SHT31;58775;46.992;9.518;2023-08-12T06:29:45;23.11;76.69
71117;SHT31;58775;46.992;9.518;2023-08-12T06:31:46;24.08;72.77
71117;SHT31;58775;46.992;9.518;2023-08-12T06:33:47;24.53;72.13
71117;SHT31;58775;46.992;9.518;2023-08-12T06:35:50;25.02;69.17
71117;SHT31;58775;46.992;9.518;2023-08-12T06:37:52;25.69;67.30
71117;SHT31;58775;46.992;9.518;2023-08-12T06:39:55;26.63;63.91
71117;SHT31;58775;46.992;9.518;2023-08-12T06:41:56;26.99;63.42
71117;SHT31;58775;46.992;9.518;2023-08-12T06:43:59;26.85;65.62
71117;SHT31;58775;46.992;9.518;2023-08-12T06:46:01;27.14;65.18
71117;SHT31;58775;46.992;9.518;2023-08-12T06:48:03;27.73;62.48
71117;SHT31;58775;46.992;9.518;2023-08-12T06:50:04;28.92;59.79
71117;SHT31;58775;46.992;9.518;2023-08-12T06:52:05;29.67;58.11
71117;SHT31;58775;46.992;9.518;2023-08-12T06:54:06;30.11;56.30
71117;SHT31;58775;46.992;9.518;2023-08-12T06:56:07;29.25;59.34
71117;SHT31;58775;46.992;9.518;2023-08-12T06:58:09;28.33;59.81
71117;SHT31;58775;46.992;9.518;2023-08-12T07:00:11;29.53;57.13
71117;SHT31;58775;46.992;9.518;2023-08-12T07:02:12;29.36;58.36
71117;SHT31;58775;46.992;9.518;2023-08-12T07:04:13;28.87;58.61
71117;SHT31;58775;46.992;9.518;2023-08-12T07:06:14;29.71;57.13
71117;SHT31;58775;46.992;9.518;2023-08-12T07:08:15;30.65;54.15
71117;SHT31;58775;46.992;9.518;2023-08-12T07:10:17;29.98;57.81
71117;SHT31;58775;46.992;9.518;2023-08-12T07:12:18;29.16;58.50
71117;SHT31;58775;46.992;9.518;2023-08-12T07:14:19;31.20;53.62
71117;SHT31;58775;46.992;9.518;2023-08-12T07:16:20;30.84;55.05
71117;SHT31;58775;46.992;9.518;2023-08-12T07:18:21;31.34;52.40
71117;SHT31;58775;46.992;9.518;2023-08-12T07:20:26;31.88;52.80
71117;SHT31;58775;46.992;9.518;2023-08-12T07:22:27;31.33;54.62
71117;SHT31;58775;46.992;9.518;2023-08-12T07:24:28;32.88;48.81
71117;SHT31;58775;46.992;9.518;2023-08-12T07:26:29;33.78;47.57
71117;SHT31;58775;46.992;9.518;2023-08-12T07:28:31;33.45;48.80
71117;SHT31;58775;46.992;9.518;2023-08-12T07:30:34;33.47;47.10
71117;SHT31;58775;46.992;9.518;2023-08-12T07:32:37;33.75;47.01
71117;SHT31;58775;46.992;9.518;2023-08-12T07:34:38;33.96;46.13
71117;SHT31;58775;46.992;9.518;2023-08-12T07:36:40;33.61;46.79
71117;SHT31;58775;46.992;9.518;2023-08-12T07:38:41;33.74;48.71
71117;SHT31;58775;46.992;9.518;2023-08-12T07:40:42;33.33;47.81
71117;SHT31;58775;46.992;9.518;2023-08-12T07:42:45;32.39;48.87
71117;SHT31;58775;46.992;9.518;2023-08-12T07:44:46;31.02;54.01
71117;SHT31;58775;46.992;9.518;2023-08-12T07:46:47;29.97;58.90
71117;SHT31;58775;46.992;9.518;2023-08-12T07:48:48;29.84;56.63
71117;SHT31;58775;46.992;9.518;2023-08-12T07:50:58;28.57;61.02
71117;SHT31;58775;46.992;9.518;2023-08-12T07:53:00;29.34;59.00
71117;SHT31;58775;46.992;9.518;2023-08-12T07:55:01;28.87;62.14
71117;SHT31;58775;46.992;9.518;2023-08-12T07:57:02;28.99;62.36
71117;SHT31;58775;46.992;9.518;2023-08-12T07:59:04;28.91;62.92
71117;SHT31;58775;46.992;9.518;2023-08-12T08:01:05;28.41;65.85
71117;SHT31;58775;46.992;9.518;2023-08-12T08:03:06;29.66;62.20
71117;SHT31;58775;46.992;9.518;2023-08-12T08:05:08;29.22;63.34
71117;SHT31;58775;46.992;9.518;2023-08-12T08:07:11;30.42;56.70
71117;SHT31;58775;46.992;9.518;2023-08-12T08:09:12;30.92;55.63
71117;SHT31;58775;46.992;9.518;2023-08-12T08:11:13;31.14;55.65
71117;SHT31;58775;46.992;9.518;2023-08-12T08:13:14;32.06;52.86
71117;SHT31;58775;46.992;9.518;2023-08-12T08:15:15;31.84;53.61
71117;SHT31;58775;46.992;9.518;2023-08-12T08:17:16;31.23;54.29
71117;SHT31;58775;46.992;9.518;2023-08-12T08:19:17;30.93;55.09
71117;SHT31;58775;46.992;9.518;2023-08-12T08:21:18;29.96;58.07
71117;SHT31;58775;46.992;9.518;2023-08-12T08:23:19;29.09;61.18
71117;SHT31;58775;46.992;9.518;2023-08-12T08:25:20;29.71;62.93
71117;SHT31;58775;46.992;9.518;2023-08-12T08:27:22;30.62;57.80
71117;SHT31;58775;46.992;9.518;2023-08-12T08:29:23;32.28;54.38
71117;SHT31;58775;46.992;9.518;2023-08-12T08:31:24;32.82;51.06
71117;SHT31;58775;46.992;9.518;2023-08-12T08:33:26;33.20;51.31
71117;SHT31;58775;46.992;9.518;2023-08-12T08:35:27;34.68;49.42
71117;SHT31;58775;46.992;9.518;2023-08-12T08:37:27;33.08;51.56
71117;SHT31;58775;46.992;9.518;2023-08-12T08:39:28;32.48;51.57
71117;SHT31;58775;46.992;9.518;2023-08-12T08:41:30;30.97;55.02
71117;SHT31;58775;46.992;9.518;2023-08-12T08:43:34;31.75;51.90
71117;SHT31;58775;46.992;9.518;2023-08-12T08:45:37;32.32;50.33
71117;SHT31;58775;46.992;9.518;2023-08-12T08:47:39;31.95;51.98
71117;SHT31;58775;46.992;9.518;2023-08-12T08:49:40;31.26;54.77
71117;SHT31;58775;46.992;9.518;2023-08-12T08:51:42;30.00;60.65
71117;SHT31;58775;46.992;9.518;2023-08-12T08:53:44;30.68;58.34
71117;SHT31;58775;46.992;9.518;2023-08-12T08:55:45;30.93;57.82
71117;SHT31;58775;46.992;9.518;2023-08-12T08:57:47;31.54;56.93
71117;SHT31;58775;46.992;9.518;2023-08-12T08:59:48;32.48;54.22
71117;SHT31;58775;46.992;9.518;2023-08-12T09:01:49;33.34;51.96
71117;SHT31;58775;46.992;9.518;2023-08-12T09:03:59;34.26;47.35
71117;SHT31;58775;46.992;9.518;2023-08-12T09:06:01;34.93;47.00
71117;SHT31;58775;46.992;9.518;2023-08-12T09:08:05;34.98;46.12
71117;SHT31;58775;46.992;9.518;2023-08-12T09:10:17;34.67;46.37
71117;SHT31;58775;46.992;9.518;2023-08-12T09:12:19;34.79;48.27
71117;SHT31;58775;46.992;9.518;2023-08-12T09:14:22;35.72;45.47
71117;SHT31;58775;46.992;9.518;2023-08-12T09:16:29;36.06;45.42
71117;SHT31;58775;46.992;9.518;2023-08-12T09:18:32;36.43;43.79
71117;SHT31;58775;46.992;9.518;2023-08-12T09:20:35;36.74;43.75
71117;SHT31;58775;46.992;9.518;2023-08-12T09:22:39;36.36;43.61
71117;SHT31;58775;46.992;9.518;2023-08-12T09:24:42;35.66;44.98
71117;SHT31;58775;46.992;9.518;2023-08-12T09:26:51;35.27;45.66
71117;SHT31;58775;46.992;9.518;2023-08-12T09:28:53;34.73;46.25
71117;SHT31;58775;46.992;9.518;2023-08-12T09:30:54;33.59;50.89
71117;SHT31;58775;46.992;9.518;2023-08-12T09:33:06;32.19;53.03
71117;SHT31;58775;46.992;9.518;2023-08-12T09:35:20;32.18;52.44
71117;SHT31;58775;46.992;9.518;2023-08-12T09:37:24;31.07;56.41
71117;SHT31;58775;46.992;9.518;2023-08-12T09:39:25;32.05;51.69
71117;SHT31;58775;46.992;9.518;2023-08-12T09:41:27;32.80;50.02
71117;SHT31;58775;46.992;9.518;2023-08-12T09:43:29;33.72;50.06
71117;SHT31;58775;46.992;9.518;2023-08-12T09:45:31;33.53;48.50
71117;SHT31;58775;46.992;9.518;2023-08-12T09:47:34;33.25;48.92
71117;SHT31;58775;46.992;9.518;2023-08-12T09:49:35;33.48;48.89
71117;SHT31;58775;46.992;9.518;2023-08-12T09:51:39;33.28;50.13
71117;SHT31;58775;46.992;9.518;2023-08-12T09:53:43;33.69;51.52
71117;SHT31;58775;46.992;9.518;2023-08-12T09:55:55;34.10;50.20
71117;SHT31;58775;46.992;9.518;2023-08-12T09:58:24;34.01;50.16
71117;SHT31;58775;46.992;9.518;2023-08-12T10:00:25;34.70;50.10
71117;SHT31;58775;46.992;9.518;2023-08-12T10:02:27;35.55;48.11
71117;SHT31;58775;46.992;9.518;2023-08-12T10:04:29;35.28;49.06
71117;SHT31;58775;46.992;9.518;2023-08-12T10:06:33;36.13;49.54
71117;SHT31;58775;46.992;9.518;2023-08-12T10:08:35;36.78;44.10
71117;SHT31;58775;46.992;9.518;2023-08-12T10:10:36;37.46;43.94
71117;SHT31;58775;46.992;9.518;2023-08-12T10:12:37;36.78;48.48
71117;SHT31;58775;46.992;9.518;2023-08-12T10:14:38;37.56;42.25
71117;SHT31;58775;46.992;9.518;2023-08-12T10:16:42;37.58;43.67
71117;SHT31;58775;46.992;9.518;2023-08-12T10:18:48;37.70;44.26
71117;SHT31;58775;46.992;9.518;2023-08-12T10:20:50;37.86;43.74
71117;SHT31;58775;46.992;9.518;2023-08-12T10:22:52;38.87;43.01
71117;SHT31;58775;46.992;9.518;2023-08-12T10:24:54;38.36;43.31
71117;SHT31;58775;46.992;9.518;2023-08-12T10:26:56;39.19;41.83
71117;SHT31;58775;46.992;9.518;2023-08-12T10:29:00;39.38;40.02
71117;SHT31;58775;46.992;9.518;2023-08-12T10:31:05;39.39;40.46
71117;SHT31;58775;46.992;9.518;2023-08-12T10:33:08;39.30;41.74
71117;SHT31;58775;46.992;9.518;2023-08-12T10:35:11;39.80;40.37
71117;SHT31;58775;46.992;9.518;2023-08-12T10:37:14;38.81;40.64
71117;SHT31;58775;46.992;9.518;2023-08-12T10:39:15;39.59;40.60
71117;SHT31;58775;46.992;9.518;2023-08-12T10:41:20;39.19;40.70
71117;SHT31;58775;46.992;9.518;2023-08-12T10:43:26;39.01;41.69
71117;SHT31;58775;46.992;9.518;2023-08-12T10:45:46;39.68;42.59
71117;SHT31;58775;46.992;9.518;2023-08-12T10:48:10;37.80;41.52
71117;SHT31;58775;46.992;9.518;2023-08-12T10:50:20;37.64;44.97
71117;SHT31;58775;46.992;9.518;2023-08-12T10:52:32;37.56;43.38
71117;SHT31;58775;46.992;9.518;2023-08-12T10:54:34;37.21;44.86
71117;SHT31;58775;46.992;9.518;2023-08-12T10:59:06;36.58;46.61
71117;SHT31;58775;46.992;9.518;2023-08-12T11:01:17;36.13;47.40
71117;SHT31;58775;46.992;9.518;2023-08-12T11:03:19;35.82;48.22
71117;SHT31;58775;46.992;9.518;2023-08-12T11:05:20;35.64;46.31
71117;SHT31;58775;46.992;9.518;2023-08-12T11:07:28;34.53;49.98
71117;SHT31;58775;46.992;9.518;2023-08-12T11:09:29;34.77;48.48
71117;SHT31;58775;46.992;9.518;2023-08-12T11:11:30;35.03;47.85
71117;SHT31;58775;46.992;9.518;2023-08-12T11:13:31;34.74;48.35
71117;SHT31;58775;46.992;9.518;2023-08-12T11:15:37;34.12;47.99
71117;SHT31;58775;46.992;9.518;2023-08-12T11:17:40;34.05;48.87
71117;SHT31;58775;46.992;9.518;2023-08-12T11:19:42;34.70;47.77
71117;SHT31;58775;46.992;9.518;2023-08-12T11:21:43;33.31;47.18
71117;SHT31;58775;46.992;9.518;2023-08-12T11:23:45;34.08;49.60
71117;SHT31;58775;46.992;9.518;2023-08-12T11:25:47;34.90;45.92
71117;SHT31;58775;46.992;9.518;2023-08-12T11:27:50;34.93;47.63
71117;SHT31;58775;46.992;9.518;2023-08-12T11:29:51;35.92;46.53
71117;SHT31;58775;46.992;9.518;2023-08-12T11:31:52;34.27;46.42
71117;SHT31;58775;46.992;9.518;2023-08-12T11:33:53;34.46;46.77
71117;SHT31;58775;46.992;9.518;2023-08-12T11:35:54;34.79;47.92
71117;SHT31;58775;46.992;9.518;2023-08-12T11:37:57;35.00;47.03
71117;SHT31;58775;46.992;9.518;2023-08-12T11:39:58;34.66;46.39
71117;SHT31;58775;46.992;9.518;2023-08-12T11:41:59;36.17;46.92
71117;SHT31;58775;46.992;9.518;2023-08-12T11:44:00;35.93;44.94
71117;SHT31;58775;46.992;9.518;2023-08-12T11:46:01;34.56;45.30
71117;SHT31;58775;46.992;9.518;2023-08-12T11:48:03;35.00;45.21
71117;SHT31;58775;46.992;9.518;2023-08-12T11:50:07;33.08;48.36
71117;SHT31;58775;46.992;9.518;2023-08-12T11:52:10;33.43;50.25
71117;SHT31;58775;46.992;9.518;2023-08-12T11:54:12;33.57;48.29
71117;SHT31;58775;46.992;9.518;2023-08-12T11:56:13;33.24;47.90
71117;SHT31;58775;46.992;9.518;2023-08-12T11:58:15;32.94;49.43
71117;SHT31;58775;46.992;9.518;2023-08-12T12:00:21;32.80;51.49
71117;SHT31;58775;46.992;9.518;2023-08-12T12:02:24;32.49;50.02
71117;SHT31;58775;46.992;9.518;2023-08-12T12:04:25;32.35;50.06
71117;SHT31;58775;46.992;9.518;2023-08-12T12:06:35;33.65;48.36
71117;SHT31;58775;46.992;9.518;2023-08-12T12:08:38;33.68;49.46
71117;SHT31;58775;46.992;9.518;2023-08-12T12:10:39;34.35;49.87
71117;SHT31;58775;46.992;9.518;2023-08-12T12:12:41;34.52;47.38
71117;SHT31;58775;46.992;9.518;2023-08-12T12:14:46;33.66;48.04
71117;SHT31;58775;46.992;9.518;2023-08-12T12:16:49;33.10;49.14
71117;SHT31;58775;46.992;9.518;2023-08-12T12:18:57;32.11;49.22
71117;SHT31;58775;46.992;9.518;2023-08-12T12:21:00;31.96;52.30
71117;SHT31;58775;46.992;9.518;2023-08-12T12:23:06;31.61;52.21
71117;SHT31;58775;46.992;9.518;2023-08-12T12:25:12;32.14;51.84
71117;SHT31;58775;46.992;9.518;2023-08-12T12:27:13;31.92;51.82
71117;SHT31;58775;46.992;9.518;2023-08-12T12:29:14;31.89;53.35
71117;SHT31;58775;46.992;9.518;2023-08-12T12:31:16;30.69;53.37
71117;SHT31;58775;46.992;9.518;2023-08-12T12:33:17;30.75;53.36
71117;SHT31;58775;46.992;9.518;2023-08-12T12:35:18;30.99;52.53
71117;SHT31;58775;46.992;9.518;2023-08-12T12:37:19;31.14;54.00
71117;SHT31;58775;46.992;9.518;2023-08-12T12:39:20;30.63;54.25
71117;SHT31;58775;46.992;9.518;2023-08-12T12:41:22;30.65;52.77
71117;SHT31;58775;46.992;9.518;2023-08-12T12:43:23;31.45;53.12
71117;SHT31;58775;46.992;9.518;2023-08-12T12:45:24;31.47;52.93
71117;SHT31;58775;46.992;9.518;2023-08-12T12:47:25;31.38;53.44
71117;SHT31;58775;46.992;9.518;2023-08-12T12:49:26;31.19;58.58
71117;SHT31;58775;46.992;9.518;2023-08-12T12:51:29;31.33;56.55
71117;SHT31;58775;46.992;9.518;2023-08-12T12:53:30;30.21;60.94
71117;SHT31;58775;46.992;9.518;2023-08-12T12:55:31;30.15;61.77
71117;SHT31;58775;46.992;9.518;2023-08-12T12:57:32;30.84;57.91
71117;SHT31;58775;46.992;9.518;2023-08-12T12:59:33;30.78;60.36
71117;SHT31;58775;46.992;9.518;2023-08-12T13:01:34;30.99;60.02
71117;SHT31;58775;46.992;9.518;2023-08-12T13:03:35;30.69;61.94
71117;SHT31;58775;46.992;9.518;2023-08-12T13:05:36;30.15;64.05
71117;SHT31;58775;46.992;9.518;2023-08-12T13:07:37;30.71;59.79
71117;SHT31;58775;46.992;9.518;2023-08-12T13:09:38;31.00;58.38
71117;SHT31;58775;46.992;9.518;2023-08-12T13:11:39;30.66;59.80
71117;SHT31;58775;46.992;9.518;2023-08-12T13:13:40;30.59;57.23
71117;SHT31;58775;46.992;9.518;2023-08-12T13:15:41;30.20;63.82
71117;SHT31;58775;46.992;9.518;2023-08-12T13:17:42;30.71;57.87
71117;SHT31;58775;46.992;9.518;2023-08-12T13:19:43;31.14;56.60
71117;SHT31;58775;46.992;9.518;2023-08-12T13:21:44;30.96;56.72
71117;SHT31;58775;46.992;9.518;2023-08-12T13:23:45;31.00;56.97
71117;SHT31;58775;46.992;9.518;2023-08-12T13:25:46;30.94;57.86
71117;SHT31;58775;46.992;9.518;2023-08-12T13:27:47;31.23;57.38
71117;SHT31;58775;46.992;9.518;2023-08-12T13:29:48;31.71;61.38
71117;SHT31;58775;46.992;9.518;2023-08-12T13:31:49;31.77;55.18
71117;SHT31;58775;46.992;9.518;2023-08-12T13:33:50;32.08;60.92
71117;SHT31;58775;46.992;9.518;2023-08-12T13:35:51;31.91;61.48
71117;SHT31;58775;46.992;9.518;2023-08-12T13:37:52;32.72;54.41
71117;SHT31;58775;46.992;9.518;2023-08-12T13:39:53;32.76;55.42
71117;SHT31;58775;46.992;9.518;2023-08-12T13:41:54;32.83;55.71
71117;SHT31;58775;46.992;9.518;2023-08-12T13:43:55;32.53;54.35
71117;SHT31;58775;46.992;9.518;2023-08-12T13:45:56;32.97;54.44
71117;SHT31;58775;46.992;9.518;2023-08-12T13:47:57;32.25;57.92
71117;SHT31;58775;46.992;9.518;2023-08-12T13:49:59;32.36;56.99
71117;SHT31;58775;46.992;9.518;2023-08-12T13:52:00;31.77;59.00
71117;SHT31;58775;46.992;9.518;2023-08-12T13:54:01;31.48;60.12
71117;SHT31;58775;46.992;9.518;2023-08-12T13:56:02;30.07;62.22
71117;SHT31;58775;46.992;9.518;2023-08-12T13:58:03;29.29;65.95
71117;SHT31;58775;46.992;9.518;2023-08-12T14:00:05;29.96;63.37
71117;SHT31;58775;46.992;9.518;2023-08-12T14:02:13;30.51;60.34
71117;SHT31;58775;46.992;9.518;2023-08-12T14:04:14;30.07;63.96
71117;SHT31;58775;46.992;9.518;2023-08-12T14:06:15;30.07;64.85
71117;SHT31;58775;46.992;9.518;2023-08-12T14:08:17;29.84;66.62
71117;SHT31;58775;46.992;9.518;2023-08-12T14:10:18;30.18;63.36
71117;SHT31;58775;46.992;9.518;2023-08-12T14:12:19;30.15;63.67
71117;SHT31;58775;46.992;9.518;2023-08-12T14:14:20;29.69;63.95
71117;SHT31;58775;46.992;9.518;2023-08-12T14:16:22;28.88;67.49
71117;SHT31;58775;46.992;9.518;2023-08-12T14:18:23;28.94;67.17
71117;SHT31;58775;46.992;9.518;2023-08-12T14:20:24;28.76;65.45
71117;SHT31;58775;46.992;9.518;2023-08-12T14:22:25;28.43;69.34
71117;SHT31;58775;46.992;9.518;2023-08-12T14:24:26;28.31;69.54
71117;SHT31;58775;46.992;9.518;2023-08-12T14:26:27;28.27;69.70
71117;SHT31;58775;46.992;9.518;2023-08-12T14:28:28;28.54;64.88
71117;SHT31;58775;46.992;9.518;2023-08-12T14:30:29;28.52;68.19
71117;SHT31;58775;46.992;9.518;2023-08-12T14:32:30;28.08;70.16
71117;SHT31;58775;46.992;9.518;2023-08-12T14:34:32;27.93;70.80
71117;SHT31;58775;46.992;9.518;2023-08-12T14:36:33;27.79;72.48
71117;SHT31;58775;46.992;9.518;2023-08-12T14:38:36;27.93;69.71
71117;SHT31;58775;46.992;9.518;2023-08-12T14:40:37;27.79;70.08
71117;SHT31;58775;46.992;9.518;2023-08-12T14:42:38;27.55;73.63
71117;SHT31;58775;46.992;9.518;2023-08-12T14:44:39;27.80;69.91
71117;SHT31;58775;46.992;9.518;2023-08-12T14:46:40;27.65;73.09
71117;SHT31;58775;46.992;9.518;2023-08-12T14:48:42;27.85;70.59
71117;SHT31;58775;46.992;9.518;2023-08-12T14:50:43;27.69;72.30
71117;SHT31;58775;46.992;9.518;2023-08-12T14:52:43;27.46;72.17
71117;SHT31;58775;46.992;9.518;2023-08-12T14:54:45;27.52;73.29
71117;SHT31;58775;46.992;9.518;2023-08-12T14:56:46;27.46;72.47
71117;SHT31;58775;46.992;9.518;2023-08-12T14:58:47;27.39;71.52
71117;SHT31;58775;46.992;9.518;2023-08-12T15:00:48;27.41;73.55
71117;SHT31;58775;46.992;9.518;2023-08-12T15:02:49;27.26;74.32
71117;SHT31;58775;46.992;9.518;2023-08-12T15:04:50;27.38;71.85
71117;SHT31;58775;46.992;9.518;2023-08-12T15:06:51;27.15;73.74
71117;SHT31;58775;46.992;9.518;2023-08-12T15:08:53;27.15;73.07
71117;SHT31;58775;46.992;9.518;2023-08-12T15:10:55;26.87;75.53
71117;SHT31;58775;46.992;9.518;2023-08-12T15:12:56;26.85;73.46
71117;SHT31;58775;46.992;9.518;2023-08-12T15:14:57;26.70;74.30
71117;SHT31;58775;46.992;9.518;2023-08-12T15:16:58;26.60;74.96
71117;SHT31;58775;46.992;9.518;2023-08-12T15:18:59;26.56;74.19
71117;SHT31;58775;46.992;9.518;2023-08-12T15:21:01;26.32;74.88
71117;SHT31;58775;46.992;9.518;2023-08-12T15:23:02;26.53;75.04
71117;SHT31;58775;46.992;9.518;2023-08-12T15:25:04;26.36;74.36
71117;SHT31;58775;46.992;9.518;2023-08-12T15:27:05;26.26;76.43
71117;SHT31;58775;46.992;9.518;2023-08-12T15:29:06;25.96;78.50
71117;SHT31;58775;46.992;9.518;2023-08-12T15:31:08;25.37;81.68
71117;SHT31;58775;46.992;9.518;2023-08-12T15:33:09;24.48;85.50
71117;SHT31;58775;46.992;9.518;2023-08-12T15:35:13;24.23;87.02
71117;SHT31;58775;46.992;9.518;2023-08-12T15:37:18;23.55;88.88
71117;SHT31;58775;46.992;9.518;2023-08-12T15:39:21;23.50;90.68
71117;SHT31;58775;46.992;9.518;2023-08-12T15:41:22;23.37;88.94
71117;SHT31;58775;46.992;9.518;2023-08-12T15:43:23;23.00;90.09
71117;SHT31;58775;46.992;9.518;2023-08-12T15:45:24;23.03;91.56
71117;SHT31;58775;46.992;9.518;2023-08-12T15:47:25;22.92;90.28
71117;SHT31;58775;46.992;9.518;2023-08-12T15:49:31;22.96;92.53
71117;SHT31;58775;46.992;9.518;2023-08-12T15:51:33;22.73;92.69
71117;SHT31;58775;46.992;9.518;2023-08-12T15:53:35;22.86;90.12
71117;SHT31;58775;46.992;9.518;2023-08-12T15:55:36;22.76;89.03
71117;SHT31;58775;46.992;9.518;2023-08-12T15:57:37;22.49;89.20
71117;SHT31;58775;46.992;9.518;2023-08-12T15:59:38;22.44;90.09
71117;SHT31;58775;46.992;9.518;2023-08-12T16:01:39;22.25;90.72
71117;SHT31;58775;46.992;9.518;2023-08-12T16:03:40;22.01;92.26
71117;SHT31;58775;46.992;9.518;2023-08-12T16:05:41;21.84;92.36
71117;SHT31;58775;46.992;9.518;2023-08-12T16:07:43;21.78;92.34
71117;SHT31;58775;46.992;9.518;2023-08-12T16:09:44;21.74;92.26
71117;SHT31;58775;46.992;9.518;2023-08-12T16:11:46;21.67;92.71
71117;SHT31;58775;46.992;9.518;2023-08-12T16:13:47;21.57;93.03
71117;SHT31;58775;46.992;9.518;2023-08-12T16:15:48;21.54;92.36
71117;SHT31;58775;46.992;9.518;2023-08-12T16:17:49;21.56;92.85
71117;SHT31;58775;46.992;9.518;2023-08-12T16:19:50;21.57;92.51
71117;SHT31;58775;46.992;9.518;2023-08-12T16:21:52;21.67;91.65
71117;SHT31;58775;46.992;9.518;2023-08-12T16:23:53;21.64;91.40
71117;SHT31;58775;46.992;9.518;2023-08-12T16:25:54;21.69;91.25
71117;SHT31;58775;46.992;9.518;2023-08-12T16:27:55;21.76;91.09
71117;SHT31;58775;46.992;9.518;2023-08-12T16:29:56;21.67;91.40
71117;SHT31;58775;46.992;9.518;2023-08-12T16:31:57;21.69;91.00
71117;SHT31;58775;46.992;9.518;2023-08-12T16:33:58;21.64;92.00
71117;SHT31;58775;46.992;9.518;2023-08-12T16:35:59;21.70;92.30
71117;SHT31;58775;46.992;9.518;2023-08-12T16:38:00;21.69;92.41
71117;SHT31;58775;46.992;9.518;2023-08-12T16:40:02;21.64;93.46
71117;SHT31;58775;46.992;9.518;2023-08-12T16:42:03;21.70;93.43
71117;SHT31;58775;46.992;9.518;2023-08-12T16:44:05;21.57;93.33
71117;SHT31;58775;46.992;9.518;2023-08-12T16:46:06;21.50;94.36
71117;SHT31;58775;46.992;9.518;2023-08-12T16:48:07;21.37;94.98
71117;SHT31;58775;46.992;9.518;2023-08-12T16:50:08;21.37;95.49
71117;SHT31;58775;46.992;9.518;2023-08-12T16:52:10;21.29;95.92
71117;SHT31;58775;46.992;9.518;2023-08-12T16:54:11;21.39;95.68
71117;SHT31;58775;46.992;9.518;2023-08-12T16:56:12;21.39;95.67
71117;SHT31;58775;46.992;9.518;2023-08-12T16:58:13;21.40;94.97
71117;SHT31;58775;46.992;9.518;2023-08-12T17:00:14;21.35;96.54
71117;SHT31;58775;46.992;9.518;2023-08-12T17:02:16;21.51;88.92
71117;SHT31;58775;46.992;9.518;2023-08-12T17:04:17;21.22;92.45
71117;SHT31;58775;46.992;9.518;2023-08-12T17:06:18;21.23;91.51
71117;SHT31;58775;46.992;9.518;2023-08-12T17:08:19;21.50;84.49
71117;SHT31;58775;46.992;9.518;2023-08-12T17:10:20;21.54;86.37
71117;SHT31;58775;46.992;9.518;2023-08-12T17:12:21;21.63;83.50
71117;SHT31;58775;46.992;9.518;2023-08-12T17:14:22;21.30;90.39
71117;SHT31;58775;46.992;9.518;2023-08-12T17:16:23;21.26;90.58
71117;SHT31;58775;46.992;9.518;2023-08-12T17:18:24;20.99;91.92
71117;SHT31;58775;46.992;9.518;2023-08-12T17:20:25;20.51;93.88
71117;SHT31;58775;46.992;9.518;2023-08-12T17:22:27;20.37;95.09
71117;SHT31;58775;46.992;9.518;2023-08-12T17:24:28;20.33;95.89
71117;SHT31;58775;46.992;9.518;2023-08-12T17:26:29;20.27;95.89
71117;SHT31;58775;46.992;9.518;2023-08-12T17:28:30;19.98;96.70
71117;SHT31;58775;46.992;9.518;2023-08-12T17:30:31;20.00;96.84
71117;SHT31;58775;46.992;9.518;2023-08-12T17:32:34;20.20;95.96
71117;SHT31;58775;46.992;9.518;2023-08-12T17:34:35;20.04;96.32
71117;SHT31;58775;46.992;9.518;2023-08-12T17:36:36;19.92;97.19
71117;SHT31;58775;46.992;9.518;2023-08-12T17:38:37;19.82;96.59
71117;SHT31;58775;46.992;9.518;2023-08-12T17:40:38;19.72;96.64
71117;SHT31;58775;46.992;9.518;2023-08-12T17:42:40;19.72;96.76
71117;SHT31;58775;46.992;9.518;2023-08-12T17:44:53;19.83;95.71
71117;SHT31;58775;46.992;9.518;2023-08-12T17:47:04;19.96;94.84
71117;SHT31;58775;46.992;9.518;2023-08-12T17:49:07;20.00;95.17
71117;SHT31;58775;46.992;9.518;2023-08-12T17:51:10;19.89;95.44
71117;SHT31;58775;46.992;9.518;2023-08-12T17:53:24;19.80;96.28
71117;SHT31;58775;46.992;9.518;2023-08-12T17:55:25;19.66;96.69
71117;SHT31;58775;46.992;9.518;2023-08-12T17:57:29;19.63;97.20
71117;SHT31;58775;46.992;9.518;2023-08-12T17:59:40;19.67;96.88
71117;SHT31;58775;46.992;9.518;2023-08-12T18:01:41;19.63;97.23
71117;SHT31;58775;46.992;9.518;2023-08-12T18:03:42;19.61;97.10
71117;SHT31;58775;46.992;9.518;2023-08-12T18:05:48;19.61;97.35
71117;SHT31;58775;46.992;9.518;2023-08-12T18:07:52;19.58;97.19
71117;SHT31;58775;46.992;9.518;2023-08-12T18:13:00;19.66;97.46
71117;SHT31;58775;46.992;9.518;2023-08-12T18:15:02;19.66;97.04
71117;SHT31;58775;46.992;9.518;2023-08-12T18:17:06;19.66;96.77
71117;SHT31;58775;46.992;9.518;2023-08-12T18:41:15;19.75;97.68
71117;SHT31;58775;46.992;9.518;2023-08-12T18:43:27;19.89;96.43